Saronic Champion — A8XF5 — position and weather

sailwx.info

Track history (hours):
 
Tides and Currents Weather Stations Pressure Air Temp Water Temp Dewpoint Dewpoint Depression Visibility Wind Speed Wind Dir Waves Ship Positions

Saronic Champion

Last reported at 2015-Feb-20 07:25 UTC. Time now 2015-Mar-04 07:05 UTC.
Position N 22°21' E 119°60'.
Warning: this ship's position is 11 days out of date.

Length 229 m; draft 7.9 m.

Type: Cargo ship. MMSI: 636014887.

Date/timePositionNaut miles runAvg speedWind from/ knotsBaromVisibWave heightAir tempDewpointWater temp
2015-Feb-20 07:25N 22°21' E 119°60'1011.4
2015-Feb-20 06:33N 22°28' E 120°07'1211.9
2015-Feb-20 05:33N 22°33' E 120°18'2 0.7
2015-Feb-20 02:19N 22°32' E 120°21'0 0.0
2015-Feb-20 01:31N 22°32' E 120°21'0 0.0
2015-Feb-20 00:31N 22°32' E 120°21'0 0.0
2015-Feb-19 21:31N 22°32' E 120°21'0 0.0
2015-Feb-19 20:25N 22°32' E 120°21'0 0.0
2015-Feb-19 19:31N 22°32' E 120°21'0 0.0
2015-Feb-19 18:25N 22°32' E 120°21'0 0.0
2015-Feb-19 16:13N 22°32' E 120°21'0 0.0
2015-Feb-19 15:19N 22°32' E 120°21'0 0.0
2015-Feb-19 14:30N 22°32' E 120°21'0 0.0
2015-Feb-19 13:31N 22°32' E 120°21'0 0.0
2015-Feb-19 12:19N 22°32' E 120°21'0 0.0
2015-Feb-19 11:30N 22°32' E 120°21'0 0.0
2015-Feb-19 10:24N 22°32' E 120°21'0 0.0
2015-Feb-19 09:30N 22°32' E 120°21'0 0.0
2015-Feb-19 08:30N 22°32' E 120°21'0 0.0
2015-Feb-19 07:12N 22°32' E 120°21'0 0.0
2015-Feb-19 05:31N 22°32' E 120°21'0 0.0
2015-Feb-19 02:18N 22°32' E 120°21'0 0.0
2015-Feb-19 01:30N 22°32' E 120°21'0 0.0
2015-Feb-19 00:06N 22°32' E 120°21'0 0.0
2015-Feb-18 22:31N 22°32' E 120°21'0 0.0
2015-Feb-18 19:12N 22°32' E 120°21'0 0.0
2015-Feb-18 16:06N 22°32' E 120°21'0 0.0
2015-Feb-18 15:06N 22°32' E 120°21'0 0.0
2015-Feb-18 14:18N 22°32' E 120°21'0 0.0
2015-Feb-18 13:24N 22°32' E 120°21'0 0.0
2015-Feb-18 12:30N 22°32' E 120°21'0 0.0
2015-Feb-18 10:06N 22°32' E 120°21'0 0.0
2015-Feb-18 09:18N 22°32' E 120°21'0 0.0
2015-Feb-18 08:30N 22°32' E 120°21'0 0.0
2015-Feb-18 07:30N 22°32' E 120°21'0 0.0
2015-Feb-18 06:31N 22°32' E 120°21'3 3.2
2015-Feb-18 05:33N 22°33' E 120°17'4 4.5
2015-Feb-18 04:33N 22°31' E 120°13'9 8.6
2015-Feb-18 03:33N 22°27' E 120°05'8 8.4
2015-Feb-18 02:33N 22°20' E 120°00'  
Track history (hours):
 
Tides and Currents Weather Stations Pressure Air Temp Water Temp Dewpoint Dewpoint Depression Visibility Wind Speed Wind Dir Waves Ship Positions

Saronic Champion

Last reported at 2015-Feb-20 07:25 UTC. Time now 2015-Mar-04 07:05 UTC.
Position N 22°21' E 119°60'.
Warning: this ship's position is 11 days out of date.

Length 229 m; draft 7.9 m.

Type: Cargo ship. MMSI: 636014887.

Date/timePositionNaut miles runAvg speedWind from/ knotsBaromVisibWave heightAir tempDewpointWater temp
2015-Feb-20 07:25N 22°21' E 119°60'1011.4
2015-Feb-20 06:33N 22°28' E 120°07'1211.9
2015-Feb-20 05:33N 22°33' E 120°18'2 0.7
2015-Feb-20 02:19N 22°32' E 120°21'0 0.0
2015-Feb-20 01:31N 22°32' E 120°21'0 0.0
2015-Feb-20 00:31N 22°32' E 120°21'0 0.0
2015-Feb-19 21:31N 22°32' E 120°21'0 0.0
2015-Feb-19 20:25N 22°32' E 120°21'0 0.0
2015-Feb-19 19:31N 22°32' E 120°21'0 0.0
2015-Feb-19 18:25N 22°32' E 120°21'0 0.0
2015-Feb-19 16:13N 22°32' E 120°21'0 0.0
2015-Feb-19 15:19N 22°32' E 120°21'0 0.0
2015-Feb-19 14:30N 22°32' E 120°21'0 0.0
2015-Feb-19 13:31N 22°32' E 120°21'0 0.0
2015-Feb-19 12:19N 22°32' E 120°21'0 0.0
2015-Feb-19 11:30N 22°32' E 120°21'0 0.0
2015-Feb-19 10:24N 22°32' E 120°21'0 0.0
2015-Feb-19 09:30N 22°32' E 120°21'0 0.0
2015-Feb-19 08:30N 22°32' E 120°21'0 0.0
2015-Feb-19 07:12N 22°32' E 120°21'0 0.0
2015-Feb-19 05:31N 22°32' E 120°21'0 0.0
2015-Feb-19 02:18N 22°32' E 120°21'0 0.0
2015-Feb-19 01:30N 22°32' E 120°21'0 0.0
2015-Feb-19 00:06N 22°32' E 120°21'0 0.0
2015-Feb-18 22:31N 22°32' E 120°21'0 0.0
2015-Feb-18 19:12N 22°32' E 120°21'0 0.0
2015-Feb-18 16:06N 22°32' E 120°21'0 0.0
2015-Feb-18 15:06N 22°32' E 120°21'0 0.0
2015-Feb-18 14:18N 22°32' E 120°21'0 0.0
2015-Feb-18 13:24N 22°32' E 120°21'0 0.0
2015-Feb-18 12:30N 22°32' E 120°21'0 0.0
2015-Feb-18 10:06N 22°32' E 120°21'0 0.0
2015-Feb-18 09:18N 22°32' E 120°21'0 0.0
2015-Feb-18 08:30N 22°32' E 120°21'0 0.0
2015-Feb-18 07:30N 22°32' E 120°21'0 0.0
2015-Feb-18 06:31N 22°32' E 120°21'3 3.2
2015-Feb-18 05:33N 22°33' E 120°17'4 4.5
2015-Feb-18 04:33N 22°31' E 120°13'9 8.6
2015-Feb-18 03:33N 22°27' E 120°05'8 8.4
2015-Feb-18 02:33N 22°20' E 120°00'  

Dump ship's entire track history